sensor_id;sensor_type;location;lat;lon;timestamp;P1;durP1;ratioP1;P2;durP2;ratioP2
57899;SDS011;60605;53.716;19.940;2023-04-25T00:00:57;12.90;;;10.50;;
57899;SDS011;60605;53.716;19.940;2023-04-25T00:06:00;12.40;;;9.60;;
57899;SDS011;60605;53.716;19.940;2023-04-25T00:11:04;12.20;;;10.90;;
57899;SDS011;60605;53.716;19.940;2023-04-25T00:21:11;11.90;;;10.70;;
57899;SDS011;60605;53.716;19.940;2023-04-25T00:26:14;11.80;;;10.50;;
57899;SDS011;60605;53.716;19.940;2023-04-25T00:31:17;11.40;;;10.20;;
57899;SDS011;60605;53.716;19.940;2023-04-25T00:36:21;12.00;;;9.80;;
57899;SDS011;60605;53.716;19.940;2023-04-25T00:41:25;10.30;;;9.20;;
57899;SDS011;60605;53.716;19.940;2023-04-25T00:46:30;13.10;;;10.10;;
57899;SDS011;60605;53.716;19.940;2023-04-25T00:51:34;13.10;;;10.00;;
57899;SDS011;60605;53.716;19.940;2023-04-25T00:56:38;9.60;;;8.60;;
57899;SDS011;60605;53.716;19.940;2023-04-25T01:01:42;9.80;;;8.80;;
57899;SDS011;60605;53.716;19.940;2023-04-25T01:06:46;9.20;;;8.10;;
57899;SDS011;60605;53.716;19.940;2023-04-25T01:11:50;9.60;;;7.90;;
57899;SDS011;60605;53.716;19.940;2023-04-25T01:16:54;8.70;;;7.40;;
57899;SDS011;60605;53.716;19.940;2023-04-25T01:21:57;9.30;;;7.40;;
57899;SDS011;60605;53.716;19.940;2023-04-25T01:32:05;9.30;;;7.90;;
57899;SDS011;60605;53.716;19.940;2023-04-25T01:37:09;9.60;;;8.40;;
57899;SDS011;60605;53.716;19.940;2023-04-25T01:42:13;10.00;;;9.00;;
57899;SDS011;60605;53.716;19.940;2023-04-25T01:47:16;8.70;;;7.80;;
57899;SDS011;60605;53.716;19.940;2023-04-25T01:57:22;9.10;;;8.20;;
57899;SDS011;60605;53.716;19.940;2023-04-25T02:02:26;10.90;;;9.20;;
57899;SDS011;60605;53.716;19.940;2023-04-25T02:07:29;11.50;;;9.80;;
57899;SDS011;60605;53.716;19.940;2023-04-25T02:12:32;11.40;;;10.00;;
57899;SDS011;60605;53.716;19.940;2023-04-25T02:22:39;11.30;;;9.80;;
57899;SDS011;60605;53.716;19.940;2023-04-25T02:27:42;10.70;;;9.60;;
57899;SDS011;60605;53.716;19.940;2023-04-25T02:32:46;17.10;;;10.30;;
57899;SDS011;60605;53.716;19.940;2023-04-25T02:37:50;13.90;;;10.00;;
57899;SDS011;60605;53.716;19.940;2023-04-25T02:42:53;13.60;;;12.00;;
57899;SDS011;60605;53.716;19.940;2023-04-25T02:47:56;13.20;;;10.90;;
57899;SDS011;60605;53.716;19.940;2023-04-25T02:58:02;17.30;;;14.30;;
57899;SDS011;60605;53.716;19.940;2023-04-25T03:03:05;18.60;;;15.00;;
57899;SDS011;60605;53.716;19.940;2023-04-25T03:13:12;21.30;;;17.00;;
57899;SDS011;60605;53.716;19.940;2023-04-25T03:18:15;22.10;;;16.50;;
57899;SDS011;60605;53.716;19.940;2023-04-25T03:23:19;25.40;;;16.10;;
57899;SDS011;60605;53.716;19.940;2023-04-25T03:28:23;18.90;;;14.50;;
57899;SDS011;60605;53.716;19.940;2023-04-25T03:33:26;16.70;;;14.20;;
57899;SDS011;60605;53.716;19.940;2023-04-25T03:43:33;15.80;;;13.00;;
57899;SDS011;60605;53.716;19.940;2023-04-25T03:48:37;14.40;;;12.60;;
57899;SDS011;60605;53.716;19.940;2023-04-25T03:53:40;14.50;;;13.10;;
57899;SDS011;60605;53.716;19.940;2023-04-25T04:03:46;16.30;;;13.80;;
57899;SDS011;60605;53.716;19.940;2023-04-25T04:08:50;15.20;;;12.90;;
57899;SDS011;60605;53.716;19.940;2023-04-25T04:18:56;14.90;;;13.40;;
57899;SDS011;60605;53.716;19.940;2023-04-25T04:23:59;13.80;;;12.40;;
57899;SDS011;60605;53.716;19.940;2023-04-25T04:29:03;16.10;;;13.90;;
57899;SDS011;60605;53.716;19.940;2023-04-25T04:34:06;14.40;;;12.60;;
57899;SDS011;60605;53.716;19.940;2023-04-25T04:39:10;16.80;;;13.00;;
57899;SDS011;60605;53.716;19.940;2023-04-25T04:44:13;16.50;;;12.50;;
57899;SDS011;60605;53.716;19.940;2023-04-25T04:49:17;15.30;;;12.30;;
57899;SDS011;60605;53.716;19.940;2023-04-25T04:54:20;13.10;;;11.20;;
57899;SDS011;60605;53.716;19.940;2023-04-25T04:59:23;12.80;;;10.60;;
57899;SDS011;60605;53.716;19.940;2023-04-25T05:04:27;11.60;;;10.30;;
57899;SDS011;60605;53.716;19.940;2023-04-25T05:09:30;9.60;;;8.70;;
57899;SDS011;60605;53.716;19.940;2023-04-25T05:14:34;10.10;;;9.10;;
57899;SDS011;60605;53.716;19.940;2023-04-25T05:19:38;9.00;;;8.10;;
57899;SDS011;60605;53.716;19.940;2023-04-25T05:24:42;9.00;;;8.00;;
57899;SDS011;60605;53.716;19.940;2023-04-25T05:29:45;8.30;;;7.50;;
57899;SDS011;60605;53.716;19.940;2023-04-25T05:34:48;7.10;;;6.40;;
57899;SDS011;60605;53.716;19.940;2023-04-25T05:39:52;7.00;;;6.40;;
57899;SDS011;60605;53.716;19.940;2023-04-25T05:44:56;6.60;;;6.00;;
57899;SDS011;60605;53.716;19.940;2023-04-25T05:50:00;6.60;;;6.00;;
57899;SDS011;60605;53.716;19.940;2023-04-25T05:55:03;6.90;;;6.30;;
57899;SDS011;60605;53.716;19.940;2023-04-25T06:00:13;6.70;;;6.10;;
57899;SDS011;60605;53.716;19.940;2023-04-25T06:05:18;6.80;;;6.10;;
57899;SDS011;60605;53.716;19.940;2023-04-25T06:10:23;7.00;;;6.20;;
57899;SDS011;60605;53.716;19.940;2023-04-25T06:15:27;6.70;;;6.00;;
57899;SDS011;60605;53.716;19.940;2023-04-25T06:20:31;5.40;;;5.00;;
57899;SDS011;60605;53.716;19.940;2023-04-25T06:25:34;6.40;;;5.80;;
57899;SDS011;60605;53.716;19.940;2023-04-25T06:30:38;6.90;;;6.30;;
57899;SDS011;60605;53.716;19.940;2023-04-25T06:35:44;7.20;;;6.50;;
57899;SDS011;60605;53.716;19.940;2023-04-25T06:40:48;6.60;;;6.00;;
57899;SDS011;60605;53.716;19.940;2023-04-25T06:45:52;7.30;;;5.90;;
57899;SDS011;60605;53.716;19.940;2023-04-25T06:50:56;7.80;;;6.80;;
57899;SDS011;60605;53.716;19.940;2023-04-25T06:56:00;7.30;;;6.50;;
57899;SDS011;60605;53.716;19.940;2023-04-25T07:06:07;6.30;;;5.70;;
57899;SDS011;60605;53.716;19.940;2023-04-25T07:11:11;6.80;;;5.30;;
57899;SDS011;60605;53.716;19.940;2023-04-25T07:16:15;6.60;;;5.80;;
57899;SDS011;60605;53.716;19.940;2023-04-25T07:21:19;6.90;;;6.20;;
57899;SDS011;60605;53.716;19.940;2023-04-25T07:26:23;7.00;;;6.10;;
57899;SDS011;60605;53.716;19.940;2023-04-25T07:31:27;7.20;;;6.40;;
57899;SDS011;60605;53.716;19.940;2023-04-25T07:36:32;6.60;;;6.00;;
57899;SDS011;60605;53.716;19.940;2023-04-25T07:41:35;6.60;;;6.00;;
57899;SDS011;60605;53.716;19.940;2023-04-25T07:46:40;6.70;;;6.00;;
57899;SDS011;60605;53.716;19.940;2023-04-25T07:51:43;8.30;;;6.50;;
57899;SDS011;60605;53.716;19.940;2023-04-25T07:56:47;7.40;;;6.00;;
57899;SDS011;60605;53.716;19.940;2023-04-25T08:01:55;7.60;;;6.80;;
57899;SDS011;60605;53.716;19.940;2023-04-25T08:07:00;10.00;;;7.50;;
57899;SDS011;60605;53.716;19.940;2023-04-25T08:12:04;10.60;;;8.10;;
57899;SDS011;60605;53.716;19.940;2023-04-25T08:17:07;10.10;;;8.90;;
57899;SDS011;60605;53.716;19.940;2023-04-25T08:27:13;7.70;;;6.90;;
57899;SDS011;60605;53.716;19.940;2023-04-25T08:32:18;7.10;;;6.40;;
57899;SDS011;60605;53.716;19.940;2023-04-25T08:37:21;7.50;;;6.70;;
57899;SDS011;60605;53.716;19.940;2023-04-25T08:47:29;6.00;;;5.50;;
57899;SDS011;60605;53.716;19.940;2023-04-25T08:52:37;6.70;;;6.00;;
57899;SDS011;60605;53.716;19.940;2023-04-25T08:57:46;6.40;;;5.90;;
57899;SDS011;60605;53.716;19.940;2023-04-25T09:02:50;5.90;;;5.40;;
57899;SDS011;60605;53.716;19.940;2023-04-25T09:07:54;7.40;;;5.70;;
57899;SDS011;60605;53.716;19.940;2023-04-25T09:13:02;6.50;;;5.90;;
57899;SDS011;60605;53.716;19.940;2023-04-25T09:18:11;6.00;;;5.20;;
57899;SDS011;60605;53.716;19.940;2023-04-25T09:23:14;5.60;;;5.10;;
57899;SDS011;60605;53.716;19.940;2023-04-25T09:33:32;5.90;;;5.40;;
57899;SDS011;60605;53.716;19.940;2023-04-25T09:38:41;5.40;;;5.00;;
57899;SDS011;60605;53.716;19.940;2023-04-25T09:43:46;6.40;;;4.80;;
57899;SDS011;60605;53.716;19.940;2023-04-25T09:48:52;5.70;;;5.00;;
57899;SDS011;60605;53.716;19.940;2023-04-25T09:53:57;5.20;;;4.70;;
57899;SDS011;60605;53.716;19.940;2023-04-25T09:59:00;5.60;;;5.10;;
57899;SDS011;60605;53.716;19.940;2023-04-25T10:04:04;5.90;;;5.40;;
57899;SDS011;60605;53.716;19.940;2023-04-25T10:09:13;5.80;;;5.20;;
57899;SDS011;60605;53.716;19.940;2023-04-25T10:14:18;5.70;;;5.20;;
57899;SDS011;60605;53.716;19.940;2023-04-25T10:19:23;5.40;;;4.90;;
57899;SDS011;60605;53.716;19.940;2023-04-25T10:24:27;5.90;;;4.90;;
57899;SDS011;60605;53.716;19.940;2023-04-25T10:29:30;5.10;;;4.60;;
57899;SDS011;60605;53.716;19.940;2023-04-25T10:34:38;5.70;;;5.20;;
57899;SDS011;60605;53.716;19.940;2023-04-25T10:39:42;9.00;;;5.20;;
57899;SDS011;60605;53.716;19.940;2023-04-25T10:45:00;5.90;;;5.40;;
57899;SDS011;60605;53.716;19.940;2023-04-25T10:50:08;5.30;;;4.80;;
57899;SDS011;60605;53.716;19.940;2023-04-25T10:55:12;5.00;;;4.60;;
57899;SDS011;60605;53.716;19.940;2023-04-25T11:00:16;6.10;;;4.70;;
57899;SDS011;60605;53.716;19.940;2023-04-25T11:10:49;4.00;;;3.50;;
57899;SDS011;60605;53.716;19.940;2023-04-25T11:15:53;5.20;;;3.90;;
57899;SDS011;60605;53.716;19.940;2023-04-25T11:21:13;5.50;;;3.40;;
57899;SDS011;60605;53.716;19.940;2023-04-25T11:26:18;4.40;;;3.90;;
57899;SDS011;60605;53.716;19.940;2023-04-25T11:31:24;4.10;;;3.70;;
57899;SDS011;60605;53.716;19.940;2023-04-25T11:36:28;3.50;;;3.20;;
57899;SDS011;60605;53.716;19.940;2023-04-25T11:41:32;3.90;;;3.60;;
57899;SDS011;60605;53.716;19.940;2023-04-25T11:46:35;5.70;;;4.10;;
57899;SDS011;60605;53.716;19.940;2023-04-25T11:51:39;4.80;;;4.20;;
57899;SDS011;60605;53.716;19.940;2023-04-25T11:56:44;4.50;;;4.20;;
57899;SDS011;60605;53.716;19.940;2023-04-25T12:01:49;4.30;;;4.00;;
57899;SDS011;60605;53.716;19.940;2023-04-25T12:06:53;4.60;;;4.20;;
57899;SDS011;60605;53.716;19.940;2023-04-25T12:11:58;6.50;;;4.80;;
57899;SDS011;60605;53.716;19.940;2023-04-25T12:17:06;6.60;;;4.80;;
57899;SDS011;60605;53.716;19.940;2023-04-25T12:22:20;6.80;;;6.10;;
57899;SDS011;60605;53.716;19.940;2023-04-25T12:27:25;6.60;;;4.60;;
57899;SDS011;60605;53.716;19.940;2023-04-25T12:32:30;4.20;;;3.60;;
57899;SDS011;60605;53.716;19.940;2023-04-25T12:37:34;4.40;;;3.70;;
57899;SDS011;60605;53.716;19.940;2023-04-25T12:42:38;4.50;;;3.90;;
57899;SDS011;60605;53.716;19.940;2023-04-25T12:52:44;3.90;;;3.60;;
57899;SDS011;60605;53.716;19.940;2023-04-25T12:57:48;4.20;;;3.40;;
57899;SDS011;60605;53.716;19.940;2023-04-25T13:02:52;4.40;;;3.40;;
57899;SDS011;60605;53.716;19.940;2023-04-25T13:07:55;4.90;;;4.50;;
57899;SDS011;60605;53.716;19.940;2023-04-25T13:12:59;4.30;;;3.90;;
57899;SDS011;60605;53.716;19.940;2023-04-25T13:18:04;4.30;;;3.60;;
57899;SDS011;60605;53.716;19.940;2023-04-25T13:23:10;3.30;;;3.10;;
57899;SDS011;60605;53.716;19.940;2023-04-25T13:28:13;3.90;;;3.50;;
57899;SDS011;60605;53.716;19.940;2023-04-25T13:33:18;7.00;;;4.50;;
57899;SDS011;60605;53.716;19.940;2023-04-25T13:38:23;8.40;;;4.60;;
57899;SDS011;60605;53.716;19.940;2023-04-25T13:43:28;11.00;;;4.30;;
57899;SDS011;60605;53.716;19.940;2023-04-25T13:48:32;4.70;;;3.10;;
57899;SDS011;60605;53.716;19.940;2023-04-25T13:53:35;3.30;;;3.10;;
57899;SDS011;60605;53.716;19.940;2023-04-25T13:58:39;5.80;;;3.70;;
57899;SDS011;60605;53.716;19.940;2023-04-25T14:03:43;3.80;;;3.40;;
57899;SDS011;60605;53.716;19.940;2023-04-25T14:08:47;7.50;;;4.90;;
57899;SDS011;60605;53.716;19.940;2023-04-25T14:13:50;7.80;;;6.10;;
57899;SDS011;60605;53.716;19.940;2023-04-25T14:18:54;5.60;;;3.90;;
57899;SDS011;60605;53.716;19.940;2023-04-25T14:29:00;18.10;;;11.70;;
57899;SDS011;60605;53.716;19.940;2023-04-25T14:34:04;6.40;;;4.80;;
57899;SDS011;60605;53.716;19.940;2023-04-25T14:39:08;7.30;;;6.20;;
57899;SDS011;60605;53.716;19.940;2023-04-25T14:44:13;10.90;;;7.90;;
57899;SDS011;60605;53.716;19.940;2023-04-25T14:49:16;8.60;;;5.50;;
57899;SDS011;60605;53.716;19.940;2023-04-25T14:54:19;4.90;;;4.40;;
57899;SDS011;60605;53.716;19.940;2023-04-25T14:59:23;7.40;;;6.40;;
57899;SDS011;60605;53.716;19.940;2023-04-25T15:04:27;7.80;;;5.90;;
57899;SDS011;60605;53.716;19.940;2023-04-25T15:09:30;8.60;;;7.70;;
57899;SDS011;60605;53.716;19.940;2023-04-25T15:14:34;9.70;;;6.50;;
57899;SDS011;60605;53.716;19.940;2023-04-25T15:19:38;10.00;;;6.90;;
57899;SDS011;60605;53.716;19.940;2023-04-25T15:29:44;10.60;;;8.00;;
57899;SDS011;60605;53.716;19.940;2023-04-25T15:34:48;15.00;;;13.10;;
57899;SDS011;60605;53.716;19.940;2023-04-25T15:40:00;11.70;;;8.30;;
57899;SDS011;60605;53.716;19.940;2023-04-25T15:45:12;17.90;;;11.60;;
57899;SDS011;60605;53.716;19.940;2023-04-25T15:50:17;10.90;;;8.80;;
57899;SDS011;60605;53.716;19.940;2023-04-25T15:55:21;17.00;;;13.20;;
57899;SDS011;60605;53.716;19.940;2023-04-25T16:00:25;34.10;;;20.50;;
57899;SDS011;60605;53.716;19.940;2023-04-25T16:05:28;39.10;;;20.20;;
57899;SDS011;60605;53.716;19.940;2023-04-25T16:15:35;45.20;;;19.50;;
57899;SDS011;60605;53.716;19.940;2023-04-25T16:20:38;40.40;;;16.30;;
57899;SDS011;60605;53.716;19.940;2023-04-25T16:30:46;17.80;;;9.20;;
57899;SDS011;60605;53.716;19.940;2023-04-25T16:40:54;13.70;;;9.40;;
57899;SDS011;60605;53.716;19.940;2023-04-25T16:45:59;11.10;;;6.00;;
57899;SDS011;60605;53.716;19.940;2023-04-25T16:51:02;12.90;;;8.60;;
57899;SDS011;60605;53.716;19.940;2023-04-25T16:56:06;20.80;;;11.00;;
57899;SDS011;60605;53.716;19.940;2023-04-25T17:01:10;42.10;;;21.70;;
57899;SDS011;60605;53.716;19.940;2023-04-25T17:06:18;22.80;;;12.20;;
57899;SDS011;60605;53.716;19.940;2023-04-25T17:11:21;21.80;;;11.50;;
57899;SDS011;60605;53.716;19.940;2023-04-25T17:16:32;28.50;;;15.30;;
57899;SDS011;60605;53.716;19.940;2023-04-25T17:21:37;23.20;;;14.50;;
57899;SDS011;60605;53.716;19.940;2023-04-25T17:26:40;13.30;;;7.10;;
57899;SDS011;60605;53.716;19.940;2023-04-25T17:31:44;15.10;;;9.10;;
57899;SDS011;60605;53.716;19.940;2023-04-25T17:36:47;42.40;;;23.60;;
57899;SDS011;60605;53.716;19.940;2023-04-25T17:41:50;26.30;;;14.70;;
57899;SDS011;60605;53.716;19.940;2023-04-25T17:46:54;20.30;;;10.60;;
57899;SDS011;60605;53.716;19.940;2023-04-25T17:57:02;17.20;;;8.20;;
57899;SDS011;60605;53.716;19.940;2023-04-25T18:02:06;25.10;;;12.90;;
57899;SDS011;60605;53.716;19.940;2023-04-25T18:07:10;13.00;;;7.90;;
57899;SDS011;60605;53.716;19.940;2023-04-25T18:17:18;17.20;;;11.00;;
57899;SDS011;60605;53.716;19.940;2023-04-25T18:22:23;43.10;;;33.10;;
57899;SDS011;60605;53.716;19.940;2023-04-25T18:27:26;16.70;;;11.10;;
57899;SDS011;60605;53.716;19.940;2023-04-25T18:37:34;13.20;;;7.80;;
57899;SDS011;60605;53.716;19.940;2023-04-25T18:42:38;17.40;;;10.00;;
57899;SDS011;60605;53.716;19.940;2023-04-25T18:47:42;20.80;;;10.30;;
57899;SDS011;60605;53.716;19.940;2023-04-25T18:52:48;26.50;;;13.30;;
57899;SDS011;60605;53.716;19.940;2023-04-25T18:57:52;14.70;;;7.40;;
57899;SDS011;60605;53.716;19.940;2023-04-25T19:02:55;18.90;;;8.30;;
57899;SDS011;60605;53.716;19.940;2023-04-25T19:08:05;16.90;;;7.10;;
57899;SDS011;60605;53.716;19.940;2023-04-25T19:13:10;18.60;;;11.40;;
57899;SDS011;60605;53.716;19.940;2023-04-25T19:18:13;49.60;;;16.10;;
57899;SDS011;60605;53.716;19.940;2023-04-25T19:23:17;17.70;;;5.40;;
57899;SDS011;60605;53.716;19.940;2023-04-25T19:28:20;10.40;;;5.20;;
57899;SDS011;60605;53.716;19.940;2023-04-25T19:33:25;15.30;;;6.80;;
57899;SDS011;60605;53.716;19.940;2023-04-25T19:38:29;10.30;;;5.10;;
57899;SDS011;60605;53.716;19.940;2023-04-25T19:43:33;12.30;;;5.10;;
57899;SDS011;60605;53.716;19.940;2023-04-25T19:48:37;13.70;;;5.80;;
57899;SDS011;60605;53.716;19.940;2023-04-25T19:53:41;15.20;;;5.30;;
57899;SDS011;60605;53.716;19.940;2023-04-25T19:58:44;13.00;;;6.40;;
57899;SDS011;60605;53.716;19.940;2023-04-25T20:03:48;12.90;;;7.50;;
57899;SDS011;60605;53.716;19.940;2023-04-25T20:08:55;17.50;;;8.30;;
57899;SDS011;60605;53.716;19.940;2023-04-25T20:13:58;14.10;;;5.30;;
57899;SDS011;60605;53.716;19.940;2023-04-25T20:19:02;11.30;;;6.70;;
57899;SDS011;60605;53.716;19.940;2023-04-25T20:24:07;10.80;;;5.90;;
57899;SDS011;60605;53.716;19.940;2023-04-25T20:34:14;16.10;;;7.40;;
57899;SDS011;60605;53.716;19.940;2023-04-25T20:39:17;15.80;;;7.70;;
57899;SDS011;60605;53.716;19.940;2023-04-25T20:44:21;13.20;;;7.20;;
57899;SDS011;60605;53.716;19.940;2023-04-25T20:49:25;17.00;;;8.00;;
57899;SDS011;60605;53.716;19.940;2023-04-25T20:54:29;14.90;;;7.70;;
57899;SDS011;60605;53.716;19.940;2023-04-25T20:59:33;16.50;;;8.80;;
57899;SDS011;60605;53.716;19.940;2023-04-25T21:09:40;41.50;;;20.50;;
57899;SDS011;60605;53.716;19.940;2023-04-25T21:14:47;38.40;;;19.20;;
57899;SDS011;60605;53.716;19.940;2023-04-25T21:19:50;26.80;;;14.20;;
57899;SDS011;60605;53.716;19.940;2023-04-25T21:24:53;22.30;;;10.10;;
57899;SDS011;60605;53.716;19.940;2023-04-25T21:29:58;14.00;;;8.60;;
57899;SDS011;60605;53.716;19.940;2023-04-25T21:40:09;43.20;;;23.00;;
57899;SDS011;60605;53.716;19.940;2023-04-25T21:45:12;32.10;;;17.30;;
57899;SDS011;60605;53.716;19.940;2023-04-25T21:50:16;29.70;;;14.90;;
57899;SDS011;60605;53.716;19.940;2023-04-25T21:55:22;20.50;;;13.30;;
57899;SDS011;60605;53.716;19.940;2023-04-25T22:00:26;23.40;;;13.30;;
57899;SDS011;60605;53.716;19.940;2023-04-25T22:05:32;25.30;;;12.20;;
57899;SDS011;60605;53.716;19.940;2023-04-25T22:10:35;22.00;;;10.70;;
57899;SDS011;60605;53.716;19.940;2023-04-25T22:15:40;17.30;;;9.30;;
57899;SDS011;60605;53.716;19.940;2023-04-25T22:20:43;12.10;;;6.40;;
57899;SDS011;60605;53.716;19.940;2023-04-25T22:30:50;10.30;;;6.00;;
57899;SDS011;60605;53.716;19.940;2023-04-25T22:35:53;11.30;;;7.50;;
57899;SDS011;60605;53.716;19.940;2023-04-25T22:40:57;8.80;;;6.40;;
57899;SDS011;60605;53.716;19.940;2023-04-25T22:46:00;10.50;;;6.60;;
57899;SDS011;60605;53.716;19.940;2023-04-25T22:51:04;8.80;;;7.00;;
57899;SDS011;60605;53.716;19.940;2023-04-25T22:56:08;10.50;;;5.50;;
57899;SDS011;60605;53.716;19.940;2023-04-25T23:01:12;9.70;;;6.00;;
57899;SDS011;60605;53.716;19.940;2023-04-25T23:06:15;10.60;;;5.30;;
57899;SDS011;60605;53.716;19.940;2023-04-25T23:16:22;8.10;;;5.00;;
57899;SDS011;60605;53.716;19.940;2023-04-25T23:21:25;9.80;;;5.50;;
57899;SDS011;60605;53.716;19.940;2023-04-25T23:26:28;10.50;;;5.60;;
57899;SDS011;60605;53.716;19.940;2023-04-25T23:31:31;9.10;;;5.30;;
57899;SDS011;60605;53.716;19.940;2023-04-25T23:36:35;12.60;;;5.80;;
57899;SDS011;60605;53.716;19.940;2023-04-25T23:46:41;9.20;;;5.70;;
57899;SDS011;60605;53.716;19.940;2023-04-25T23:51:45;8.00;;;5.80;;
